Time;durP1;ratioP1;P1;durP2;ratioP2;P2;SDS_P1;SDS_P2;PMS_P1;PMS_P2;Temp;Humidity;BMP_temperature;BMP_pressure;BME280_temperature;BME280_humidity;BME280_pressure;Samples;Min_cycle;Max_cycle;Signal;HPM_P1;HPM_P2
2022/03/04 00:00:20;;;;;;;56.58;36.70;;;-0.10;99.90;;;;;;5209288;28;20053;-73
2022/03/04 00:02:52;;;;;;;56.40;37.28;;;0.00;99.90;;;;;;5209304;28;20047;-73
2022/03/04 00:05:24;;;;;;;59.05;39.83;;;0.00;99.90;;;;;;5208249;28;20510;-73
2022/03/04 00:07:55;;;;;;;96.15;55.33;;;-0.10;99.90;;;;;;5209498;28;20083;-72
2022/03/04 00:10:26;;;;;;;75.93;45.10;;;-0.30;99.90;;;;;;5209374;28;20022;-73
2022/03/04 00:12:57;;;;;;;77.93;47.33;;;-0.30;99.90;;;;;;5209319;28;20021;-72
2022/03/04 00:15:28;;;;;;;68.35;40.90;;;-0.40;99.90;;;;;;5209236;28;20021;-73
2022/03/04 00:17:59;;;;;;;72.55;39.33;;;-0.30;99.90;;;;;;5209229;28;20079;-74
2022/03/04 00:20:30;;;;;;;66.65;37.15;;;-0.40;99.90;;;;;;5208973;28;20028;-72
2022/03/04 00:23:01;;;;;;;72.05;39.33;;;-0.50;99.90;;;;;;5209055;28;20068;-72
2022/03/04 00:25:32;;;;;;;67.78;38.67;;;-0.40;99.90;;;;;;5208973;28;20021;-73
2022/03/04 00:28:03;;;;;;;65.65;36.58;;;-0.40;99.90;;;;;;5208947;28;20088;-73
2022/03/04 00:30:34;;;;;;;66.55;37.97;;;-0.60;99.90;;;;;;5209012;28;20036;-72
2022/03/04 00:33:05;;;;;;;60.67;35.63;;;-0.50;99.90;;;;;;5208947;28;20024;-73
2022/03/04 00:35:36;;;;;;;67.70;37.65;;;-0.50;99.90;;;;;;5208947;28;20380;-74
2022/03/04 00:38:07;;;;;;;63.05;35.85;;;-0.50;99.90;;;;;;5208861;28;20028;-72
2022/03/04 00:40:37;;;;;;;61.58;36.25;;;-0.40;99.90;;;;;;5208714;28;20028;-72
2022/03/04 00:43:09;;;;;;;68.95;39.08;;;-0.50;99.90;;;;;;5208590;28;20362;-72
2022/03/04 00:45:40;;;;;;;66.47;37.85;;;-0.50;99.90;;;;;;5208905;28;20026;-72
2022/03/04 00:48:11;;;;;;;64.38;38.38;;;-0.60;99.90;;;;;;5208595;28;20056;-73
2022/03/04 00:50:42;;;;;;;69.93;36.97;;;-0.70;99.90;;;;;;5208496;28;20492;-72
2022/03/04 00:53:13;;;;;;;61.50;36.97;;;-0.50;99.90;;;;;;5208430;28;20033;-72
2022/03/04 00:55:44;;;;;;;58.70;35.45;;;-0.50;99.90;;;;;;5207494;28;20101;-73
2022/03/04 00:58:15;;;;;;;57.10;34.53;;;-0.50;99.90;;;;;;5208355;28;20037;-72
2022/03/04 01:00:45;;;;;;;68.13;36.28;;;-0.50;99.90;;;;;;5208162;28;20077;-72
2022/03/04 01:03:16;;;;;;;59.65;35.53;;;-0.60;99.90;;;;;;5206905;28;20095;-71
2022/03/04 01:05:47;;;;;;;60.63;35.92;;;-0.60;99.90;;;;;;5208385;28;20462;-72
2022/03/04 01:08:18;;;;;;;54.90;33.08;;;-0.50;99.90;;;;;;5206927;28;20025;-73
2022/03/04 01:10:50;;;;;;;57.30;33.65;;;-0.50;99.90;;;;;;5206902;28;20021;-72
2022/03/04 01:13:21;;;;;;;53.47;33.78;;;-0.50;99.90;;;;;;5208152;28;20029;-72
2022/03/04 01:15:54;;;;;;;52.30;32.53;;;-0.80;99.90;;;;;;5208114;28;20484;-72
2022/03/04 01:18:25;;;;;;;57.67;32.90;;;-0.70;99.90;;;;;;5208063;28;20168;-73
2022/03/04 01:20:56;;;;;;;54.22;33.42;;;-0.60;99.90;;;;;;5207858;28;20105;-73
2022/03/04 01:23:27;;;;;;;58.60;33.50;;;-0.60;99.90;;;;;;5207671;28;20037;-73
2022/03/04 01:25:58;;;;;;;59.25;32.67;;;-0.70;99.90;;;;;;5207817;28;20457;-72
2022/03/04 01:28:28;;;;;;;56.03;33.05;;;-0.70;99.90;;;;;;5207676;28;20037;-73
2022/03/04 01:30:59;;;;;;;56.75;32.63;;;-0.70;99.90;;;;;;5207854;28;20483;-72
2022/03/04 01:33:30;;;;;;;57.78;34.22;;;-0.80;99.90;;;;;;5207677;28;20107;-74
2022/03/04 01:36:01;;;;;;;60.97;35.88;;;-0.90;99.90;;;;;;5207708;28;20108;-74
2022/03/04 01:38:32;;;;;;;61.45;34.28;;;-0.90;99.90;;;;;;5207809;28;20026;-73
2022/03/04 01:41:03;;;;;;;59.53;37.20;;;-0.90;99.90;;;;;;5207415;28;20022;-72
2022/03/04 01:43:35;;;;;;;62.78;36.35;;;-0.90;99.90;;;;;;5207473;28;20481;-72
2022/03/04 01:46:29;;;;;;;77.72;48.08;;;-0.80;99.90;;;;;;5207567;28;20386;-72
2022/03/04 01:48:59;;;;;;;88.20;47.70;;;-1.00;99.90;;;;;;5207406;28;20030;-73
2022/03/04 01:51:30;;;;;;;91.55;53.47;;;-1.00;99.90;;;;;;5206123;28;20021;-72
2022/03/04 01:54:02;;;;;;;79.10;47.28;;;-1.00;99.90;;;;;;5207318;28;20444;-73
2022/03/04 01:56:33;;;;;;;71.82;44.95;;;-0.70;99.90;;;;;;5207340;28;20113;-73
2022/03/04 01:59:04;;;;;;;79.90;47.75;;;-0.70;99.90;;;;;;5207011;28;20108;-72
2022/03/04 02:01:35;;;;;;;79.10;45.80;;;-0.80;99.90;;;;;;5207092;28;20053;-72
2022/03/04 02:04:06;;;;;;;77.47;46.90;;;-0.90;99.90;;;;;;5207119;28;20068;-73
2022/03/04 02:06:37;;;;;;;82.72;50.50;;;-0.70;99.90;;;;;;5207039;28;20488;-72
2022/03/04 02:09:08;;;;;;;100.85;59.00;;;-1.00;99.90;;;;;;5207099;28;20071;-73
2022/03/04 02:11:42;;;;;;;101.82;56.83;;;-0.90;99.90;;;;;;5207149;28;20393;-73
2022/03/04 02:14:13;;;;;;;97.15;56.78;;;-0.70;99.90;;;;;;5207000;28;20024;-73
2022/03/04 02:16:46;;;;;;;95.55;55.47;;;-0.70;99.90;;;;;;5207008;28;20030;-73
2022/03/04 02:19:18;;;;;;;96.40;56.92;;;-0.60;99.90;;;;;;5206919;28;20396;-73
2022/03/04 02:21:58;;;;;;;88.93;54.78;;;-0.80;99.90;;;;;;5206691;28;20469;-74
2022/03/04 02:24:31;;;;;;;84.15;50.72;;;-0.80;99.90;;;;;;5207295;28;20098;-73
2022/03/04 02:27:03;;;;;;;85.65;52.38;;;-0.90;99.90;;;;;;5206648;28;20068;-73
2022/03/04 02:29:34;;;;;;;102.22;55.88;;;-1.10;99.90;;;;;;5206793;28;20030;-73
2022/03/04 02:32:06;;;;;;;104.95;58.50;;;-1.20;99.90;;;;;;5206724;28;20033;-73
2022/03/04 02:34:37;;;;;;;95.60;54.33;;;-1.10;99.90;;;;;;5206781;28;20033;-74
2022/03/04 02:37:08;;;;;;;87.32;52.30;;;-1.10;99.90;;;;;;5206818;28;20083;-73
2022/03/04 02:39:39;;;;;;;87.47;51.40;;;-0.90;99.90;;;;;;5206527;28;20151;-74
2022/03/04 02:42:10;;;;;;;85.35;50.72;;;-1.00;99.90;;;;;;5206566;28;20052;-74
2022/03/04 02:44:41;;;;;;;82.13;48.65;;;-0.90;99.90;;;;;;5206664;28;20108;-74
2022/03/04 02:47:11;;;;;;;72.45;43.63;;;-1.10;99.90;;;;;;5206695;28;20109;-74
2022/03/04 02:49:42;;;;;;;85.65;51.42;;;-1.40;99.90;;;;;;5206511;28;20421;-74
2022/03/04 02:52:13;;;;;;;79.50;48.03;;;-1.50;99.90;;;;;;5206456;28;20021;-74
2022/03/04 02:54:44;;;;;;;82.78;49.33;;;-1.30;99.90;;;;;;5206556;28;20462;-74
2022/03/04 02:57:15;;;;;;;77.30;46.35;;;-1.10;99.90;;;;;;5206394;28;20025;-74
2022/03/04 02:59:45;;;;;;;84.28;48.97;;;-1.00;99.90;;;;;;5205890;28;20050;-74
2022/03/04 03:02:16;;;;;;;80.53;47.63;;;-1.40;99.90;;;;;;5206445;28;20025;-73
2022/03/04 03:04:47;;;;;;;79.20;46.28;;;-1.40;99.90;;;;;;5206216;28;20033;-73
2022/03/04 03:07:18;;;;;;;80.72;46.72;;;-1.20;99.90;;;;;;5206387;28;20453;-74
2022/03/04 03:09:49;;;;;;;77.38;46.53;;;-1.20;99.90;;;;;;5206460;28;20041;-73
2022/03/04 03:12:20;;;;;;;73.18;46.30;;;-1.30;99.90;;;;;;5206260;28;20109;-74
2022/03/04 03:14:51;;;;;;;70.80;42.13;;;-1.40;99.90;;;;;;5205085;28;20117;-73
2022/03/04 03:17:21;;;;;;;66.10;40.17;;;-1.40;99.90;;;;;;5205032;28;20107;-73
2022/03/04 03:19:52;;;;;;;67.25;41.05;;;-1.40;99.90;;;;;;5209394;28;20026;-74
2022/03/04 03:22:23;;;;;;;68.55;41.45;;;-1.40;99.90;;;;;;5210176;28;20039;-74
2022/03/04 03:24:54;;;;;;;67.93;41.97;;;-1.50;99.90;;;;;;5210379;28;20038;-74
2022/03/04 03:27:25;;;;;;;68.40;40.95;;;-1.30;99.90;;;;;;5208844;28;20108;-74
2022/03/04 03:29:56;;;;;;;70.32;42.78;;;-1.20;99.90;;;;;;5210177;28;20060;-74
2022/03/04 03:32:26;;;;;;;65.07;38.90;;;-1.50;99.90;;;;;;5210094;28;20045;-74
2022/03/04 03:34:57;;;;;;;59.90;37.25;;;-1.00;99.90;;;;;;5209999;28;20060;-74
2022/03/04 03:37:28;;;;;;;59.65;36.95;;;-0.90;99.90;;;;;;5210030;28;20017;-74
2022/03/04 03:39:59;;;;;;;58.78;36.28;;;-0.80;99.90;;;;;;5209894;28;20075;-74
2022/03/04 03:42:30;;;;;;;58.50;35.83;;;-0.90;99.90;;;;;;5209802;28;20042;-74
2022/03/04 03:45:02;;;;;;;60.90;36.50;;;-0.80;99.90;;;;;;5209894;28;20049;-74
2022/03/04 03:47:33;;;;;;;59.38;37.10;;;-1.10;99.90;;;;;;5209828;28;20039;-74
2022/03/04 03:50:06;;;;;;;55.53;35.45;;;-0.90;99.90;;;;;;5209606;28;20064;-74
2022/03/04 03:52:37;;;;;;;61.50;37.75;;;-0.70;99.90;;;;;;5209724;28;20035;-75
2022/03/04 03:55:09;;;;;;;59.95;36.67;;;-0.90;99.90;;;;;;5209690;28;20021;-74
2022/03/04 03:57:40;;;;;;;56.35;36.33;;;-0.90;99.90;;;;;;5209617;28;20029;-74
2022/03/04 04:00:11;;;;;;;60.33;38.67;;;-0.80;99.90;;;;;;5209296;28;20045;-73
2022/03/04 04:02:42;;;;;;;53.92;35.42;;;-1.10;99.90;;;;;;5209424;28;20128;-74
2022/03/04 04:05:13;;;;;;;66.30;41.63;;;-0.70;99.90;;;;;;5209557;28;20105;-74
2022/03/04 04:07:44;;;;;;;72.97;42.92;;;-1.10;99.90;;;;;;5209583;28;20040;-74
2022/03/04 04:10:14;;;;;;;86.47;51.65;;;-1.10;99.90;;;;;;5209371;28;20025;-74
2022/03/04 04:12:45;;;;;;;84.03;49.42;;;-1.20;99.90;;;;;;5208110;28;20072;-74
2022/03/04 04:15:16;;;;;;;131.57;69.68;;;-1.10;99.90;;;;;;5209289;28;20025;-74
2022/03/04 04:17:47;;;;;;;143.10;80.20;;;-1.00;99.90;;;;;;5209305;28;20029;-74
2022/03/04 04:20:17;;;;;;;144.27;75.93;;;-0.80;99.90;;;;;;5209099;28;20104;-74
2022/03/04 04:22:48;;;;;;;140.90;74.07;;;-0.90;99.90;;;;;;5209158;28;20038;-75
2022/03/04 04:25:19;;;;;;;150.88;71.80;;;-0.80;99.90;;;;;;5209100;28;20109;-74
2022/03/04 04:27:50;;;;;;;135.00;67.78;;;-0.90;99.90;;;;;;5208920;28;20038;-77
2022/03/04 04:30:21;;;;;;;127.88;65.68;;;-1.20;99.90;;;;;;5208869;28;20492;-74
2022/03/04 04:32:52;;;;;;;130.43;66.47;;;-1.30;99.90;;;;;;5208996;28;20064;-74
2022/03/04 04:35:23;;;;;;;131.35;65.85;;;-1.30;99.90;;;;;;5208942;28;20075;-74
2022/03/04 04:37:53;;;;;;;111.88;58.10;;;-1.20;99.90;;;;;;5208872;28;20358;-74
2022/03/04 04:40:24;;;;;;;118.82;57.63;;;-1.10;99.90;;;;;;5208791;28;20028;-74
2022/03/04 04:42:55;;;;;;;111.10;59.15;;;-1.20;99.90;;;;;;5208661;28;20068;-74
2022/03/04 04:45:26;;;;;;;114.55;58.40;;;-1.10;99.90;;;;;;5208814;28;20374;-75
2022/03/04 04:47:57;;;;;;;105.78;55.72;;;-1.10;99.90;;;;;;5208661;28;20049;-76
2022/03/04 04:50:28;;;;;;;99.32;52.05;;;-1.20;99.90;;;;;;5208608;28;20052;-76
2022/03/04 04:52:59;;;;;;;88.68;47.33;;;-1.10;99.90;;;;;;5208505;28;20492;-75
2022/03/04 04:55:30;;;;;;;97.43;53.13;;;-1.20;99.90;;;;;;5208665;28;20080;-75
2022/03/04 04:58:01;;;;;;;96.55;53.50;;;-1.50;99.90;;;;;;5208490;28;20030;-75
2022/03/04 05:00:31;;;;;;;100.35;49.05;;;-1.30;99.90;;;;;;5208060;28;20057;-76
2022/03/04 05:03:02;;;;;;;98.00;51.95;;;-1.10;99.90;;;;;;5208214;28;20038;-74
2022/03/04 05:05:35;;;;;;;92.78;50.03;;;-1.40;99.90;;;;;;5208294;28;20351;-74
2022/03/04 05:08:05;;;;;;;98.80;51.47;;;-1.20;99.90;;;;;;5208281;28;20021;-74
2022/03/04 05:10:38;;;;;;;80.45;45.90;;;-1.40;99.90;;;;;;5208260;28;20022;-74
2022/03/04 05:13:09;;;;;;;81.65;45.25;;;-1.20;99.90;;;;;;5208073;28;20029;-73
2022/03/04 05:15:41;;;;;;;77.25;42.22;;;-1.40;99.90;;;;;;5208126;28;20029;-73
2022/03/04 05:18:12;;;;;;;86.60;48.00;;;-1.10;99.90;;;;;;5208150;28;20567;-73
2022/03/04 05:20:43;;;;;;;100.68;53.58;;;-1.00;99.90;;;;;;5207718;28;20040;-74
2022/03/04 05:23:58;;;;;;;103.20;54.15;;;-1.10;99.90;;;;;;5207894;28;20048;-74
2022/03/04 05:26:05;;;;;;;125.78;65.25;;;-1.00;99.90;;;;;;5207852;28;20026;-74
2022/03/04 05:28:36;;;;;;;141.55;74.82;;;-0.90;99.90;;;;;;5207783;28;20057;-74
2022/03/04 05:31:07;;;;;;;147.77;75.80;;;-0.70;99.90;;;;;;5207869;28;20033;-74
2022/03/04 05:33:37;;;;;;;140.65;74.22;;;-0.70;99.90;;;;;;5207730;28;20109;-74
2022/03/04 05:36:08;;;;;;;130.48;68.57;;;-0.40;99.90;;;;;;5206461;28;20021;-74
2022/03/04 05:38:39;;;;;;;119.25;61.40;;;-0.20;99.90;;;;;;5207741;28;20021;-74
2022/03/04 05:41:10;;;;;;;117.80;61.40;;;0.00;99.90;;;;;;5207036;28;20377;-74
2022/03/04 05:43:42;;;;;;;114.22;59.00;;;0.20;99.90;;;;;;5207405;28;20029;-74
2022/03/04 05:46:13;;;;;;;106.55;53.70;;;0.30;99.90;;;;;;5207665;28;20026;-74
2022/03/04 05:48:44;;;;;;;100.60;54.22;;;0.40;99.90;;;;;;5207421;28;20029;-74
2022/03/04 05:51:16;;;;;;;101.03;54.63;;;0.40;99.90;;;;;;5206182;28;20037;-74
2022/03/04 05:53:49;;;;;;;89.75;45.97;;;0.30;99.90;;;;;;5207331;28;20014;-74
2022/03/04 05:56:20;;;;;;;94.20;50.85;;;0.50;99.90;;;;;;5207401;28;20024;-73
2022/03/04 05:58:51;;;;;;;96.65;51.40;;;0.30;99.90;;;;;;5207069;28;20037;-74
2022/03/04 06:01:22;;;;;;;86.53;49.47;;;0.60;99.90;;;;;;5207152;28;20041;-74
2022/03/04 06:03:54;;;;;;;85.25;48.63;;;0.80;99.90;;;;;;5207112;28;20037;-73
2022/03/04 06:06:25;;;;;;;86.40;49.22;;;0.90;99.90;;;;;;5207261;28;20041;-74
2022/03/04 06:08:56;;;;;;;80.35;44.83;;;1.40;99.90;;;;;;5207191;28;20033;-73
2022/03/04 06:11:26;;;;;;;57.75;35.15;;;1.40;99.90;;;;;;5207024;28;20377;-74
2022/03/04 06:13:57;;;;;;;66.03;35.88;;;1.80;99.90;;;;;;5207086;28;20029;-74
2022/03/04 06:16:28;;;;;;;72.57;40.40;;;2.40;99.90;;;;;;5206981;28;20446;-74
2022/03/04 06:18:59;;;;;;;69.22;39.45;;;2.60;99.90;;;;;;5206826;28;20030;-74
2022/03/04 06:21:30;;;;;;;54.65;31.52;;;2.50;99.90;;;;;;5206621;28;20029;-74
2022/03/04 06:24:01;;;;;;;53.85;33.15;;;2.30;99.90;;;;;;5206806;28;20030;-74
2022/03/04 06:26:32;;;;;;;45.78;28.48;;;1.90;99.90;;;;;;5206874;28;20374;-74
2022/03/04 06:29:03;;;;;;;49.30;28.85;;;2.00;99.90;;;;;;5206736;28;20059;-74
2022/03/04 06:31:34;;;;;;;49.08;29.13;;;2.10;99.90;;;;;;5206692;28;20053;-75
2022/03/04 06:34:04;;;;;;;51.17;30.20;;;2.20;99.90;;;;;;5206827;28;20104;-75
2022/03/04 06:36:35;;;;;;;49.83;25.92;;;2.70;99.90;;;;;;5206783;28;20465;-75
2022/03/04 06:39:06;;;;;;;43.05;26.77;;;2.90;99.90;;;;;;5206714;28;20033;-75
2022/03/04 06:41:38;;;;;;;44.47;27.05;;;3.30;99.90;;;;;;5206416;28;20025;-75
2022/03/04 06:44:09;;;;;;;50.25;33.08;;;3.80;99.90;;;;;;5206628;28;20029;-74
2022/03/04 06:46:40;;;;;;;56.40;32.72;;;3.80;99.90;;;;;;5206602;28;20028;-76
2022/03/04 06:49:12;;;;;;;52.90;31.17;;;4.50;99.90;;;;;;5206434;28;20033;-75
2022/03/04 06:51:42;;;;;;;46.40;28.50;;;4.70;99.90;;;;;;5206486;28;20040;-76
2022/03/04 06:54:13;;;;;;;53.28;30.77;;;4.40;99.90;;;;;;5208938;28;20037;-76
2022/03/04 06:56:44;;;;;;;46.80;28.50;;;4.90;99.90;;;;;;5210858;28;20489;-75
2022/03/04 06:59:15;;;;;;;36.78;21.05;;;5.60;99.90;;;;;;5209223;28;20041;-75
2022/03/04 07:01:46;;;;;;;37.97;22.58;;;5.50;99.90;;;;;;5210557;28;20026;-75
2022/03/04 07:04:16;;;;;;;30.42;20.02;;;6.00;99.90;;;;;;5210782;28;20034;-76
2022/03/04 07:06:47;;;;;;;29.25;17.23;;;6.30;99.90;;;;;;5210694;28;20462;-74
2022/03/04 07:09:18;;;;;;;30.90;18.42;;;6.50;99.90;;;;;;5210577;28;20032;-75
2022/03/04 07:11:49;;;;;;;35.53;21.20;;;6.20;99.90;;;;;;5210572;28;20061;-75
2022/03/04 07:14:20;;;;;;;35.17;22.65;;;6.50;99.90;;;;;;5210568;28;20060;-75
2022/03/04 07:16:51;;;;;;;37.03;21.67;;;6.80;99.90;;;;;;5210474;28;20037;-74
2022/03/04 07:19:22;;;;;;;34.85;20.83;;;6.70;99.90;;;;;;5210399;28;20034;-75
2022/03/04 07:21:52;;;;;;;37.05;21.30;;;6.80;99.90;;;;;;5210203;28;20026;-75
2022/03/04 07:24:23;;;;;;;26.35;16.58;;;7.10;99.90;;;;;;5210280;28;20029;-76
2022/03/04 07:26:54;;;;;;;62.72;30.77;;;7.10;99.90;;;;;;5210184;28;20041;-74
2022/03/04 07:29:28;;;;;;;21.27;15.05;;;7.20;99.90;;;;;;5210236;28;20465;-75
2022/03/04 07:31:59;;;;;;;25.15;13.93;;;7.30;99.90;;;;;;5225487;28;20029;-75
2022/03/04 07:34:29;;;;;;;25.38;12.35;;;7.20;99.90;;;;;;5210148;28;20052;-75
2022/03/04 07:37:00;;;;;;;21.80;13.75;;;7.30;99.90;;;;;;5210112;28;20022;-75
2022/03/04 07:39:31;;;;;;;19.65;12.93;;;7.50;99.90;;;;;;5210021;28;20035;-73
2022/03/04 07:42:04;;;;;;;19.10;12.63;;;7.30;99.90;;;;;;5209775;28;20099;-73
2022/03/04 07:44:34;;;;;;;19.27;12.50;;;7.40;99.90;;;;;;5209939;28;20033;-73
2022/03/04 07:47:06;;;;;;;18.02;9.60;;;7.50;99.90;;;;;;5209841;28;20457;-74
2022/03/04 07:49:37;;;;;;;13.10;9.63;;;7.50;99.90;;;;;;5209673;28;20029;-75
2022/03/04 07:52:09;;;;;;;14.68;9.20;;;7.50;99.90;;;;;;5209753;28;20025;-74
2022/03/04 07:54:40;;;;;;;18.08;10.50;;;7.50;99.90;;;;;;5209786;28;20057;-72
2022/03/04 07:57:12;;;;;;;14.23;9.13;;;;;;;;;;5209602;28;20041;-72
2022/03/04 07:59:43;;;;;;;14.18;7.88;;;7.40;99.90;;;;;;5209246;28;20052;-73
2022/03/04 08:02:14;;;;;;;16.73;10.35;;;7.40;99.90;;;;;;5209426;28;20041;-72
2022/03/04 08:04:46;;;;;;;15.40;9.80;;;7.50;99.90;;;;;;5209104;28;20028;-74
2022/03/04 08:07:17;;;;;;;14.88;9.38;;;7.60;99.90;;;;;;5209482;28;20117;-73
2022/03/04 08:09:48;;;;;;;16.45;9.30;;;7.80;99.90;;;;;;5209471;28;20033;-73
2022/03/04 08:12:20;;;;;;;18.02;8.80;;;7.70;99.90;;;;;;5209341;28;20377;-72
2022/03/04 08:14:52;;;;;;;16.02;10.20;;;8.00;99.90;;;;;;5209409;28;20088;-72
2022/03/04 08:17:22;;;;;;;16.52;9.68;;;7.90;99.90;;;;;;5209386;28;20105;-73
2022/03/04 08:19:55;;;;;;;18.60;9.60;;;8.00;99.90;;;;;;5209073;28;20447;-72
2022/03/04 08:22:26;;;;;;;15.48;9.50;;;8.20;99.90;;;;;;5209055;28;20382;-73
2022/03/04 08:24:56;;;;;;;16.35;9.73;;;8.10;99.90;;;;;;5209236;28;20028;-73
2022/03/04 08:27:27;;;;;;;16.45;9.75;;;8.50;99.90;;;;;;5207869;28;20105;-73
2022/03/04 08:29:58;;;;;;;15.85;8.63;;;8.00;99.90;;;;;;5209285;28;20038;-72
2022/03/04 08:32:29;;;;;;;14.13;8.63;;;8.00;99.90;;;;;;5209035;28;20529;-72
2022/03/04 08:35:00;;;;;;;18.23;11.00;;;8.20;99.90;;;;;;5208992;28;20052;-74
2022/03/04 08:37:31;;;;;;;18.38;10.48;;;8.20;99.90;;;;;;5208870;28;20365;-74
2022/03/04 08:40:04;;;;;;;17.80;11.23;;;8.20;99.90;;;;;;5208757;28;20032;-72
2022/03/04 08:42:35;;;;;;;13.52;8.88;;;8.30;99.90;;;;;;5208745;28;20029;-72
2022/03/04 08:45:08;;;;;;;15.85;9.07;;;8.40;99.90;;;;;;5208909;28;20029;-73
2022/03/04 08:47:39;;;;;;;11.68;8.57;;;8.30;99.90;;;;;;5208653;28;20030;-72
2022/03/04 08:50:12;;;;;;;14.55;8.07;;;8.20;99.90;;;;;;5208621;28;20488;-73
2022/03/04 08:52:43;;;;;;;12.50;7.88;;;8.50;99.90;;;;;;5208570;28;20013;-72
2022/03/04 08:55:14;;;;;;;11.25;6.38;;;8.60;99.90;;;;;;5208631;28;20032;-72
2022/03/04 08:57:46;;;;;;;8.95;6.68;;;8.40;99.90;;;;;;5208443;28;20105;-72
2022/03/04 09:00:17;;;;;;;10.55;6.63;;;8.60;99.90;;;;;;5208108;28;20140;-73
2022/03/04 09:02:48;;;;;;;9.52;6.22;;;8.50;99.90;;;;;;5208203;28;20044;-72
2022/03/04 09:05:19;;;;;;;8.40;5.65;;;8.70;99.90;;;;;;5208441;28;20021;-73
2022/03/04 09:07:50;;;;;;;9.70;6.50;;;9.00;99.90;;;;;;5208355;28;20470;-72
2022/03/04 09:10:21;;;;;;;8.73;5.68;;;8.80;99.90;;;;;;5208269;28;20028;-74
2022/03/04 09:12:52;;;;;;;8.32;5.78;;;8.90;99.90;;;;;;5208234;28;20528;-71
2022/03/04 09:15:23;;;;;;;8.27;5.30;;;8.60;99.90;;;;;;5206658;28;20022;-73
2022/03/04 09:17:54;;;;;;;7.63;5.70;;;9.00;99.90;;;;;;5207642;28;20037;-72
2022/03/04 09:20:25;;;;;;;8.80;5.80;;;9.00;99.90;;;;;;5207913;28;20025;-73
2022/03/04 09:22:57;;;;;;;7.88;5.60;;;9.50;99.90;;;;;;5207918;28;20040;-73
2022/03/04 09:25:28;;;;;;;8.52;5.78;;;9.30;99.90;;;;;;5208009;28;20017;-74
2022/03/04 09:28:00;;;;;;;7.43;5.40;;;9.10;99.90;;;;;;5206594;28;20041;-73
2022/03/04 09:30:33;;;;;;;8.68;5.15;;;9.10;99.90;;;;;;5206612;28;20040;-73
2022/03/04 09:33:04;;;;;;;7.43;4.95;;;9.00;99.90;;;;;;5207864;28;20014;-73
2022/03/04 09:35:35;;;;;;;7.00;4.70;;;9.10;99.90;;;;;;5207797;28;20385;-74
2022/03/04 09:38:06;;;;;;;10.15;4.32;;;9.40;99.90;;;;;;5207736;28;20362;-73
2022/03/04 09:40:37;;;;;;;6.45;4.20;;;9.50;99.90;;;;;;5207629;28;20052;-73
2022/03/04 09:43:08;;;;;;;7.13;4.00;;;9.10;99.90;;;;;;5207471;28;20026;-74
2022/03/04 09:45:39;;;;;;;9.07;4.35;;;9.00;99.90;;;;;;5207491;28;20029;-72
2022/03/04 09:48:12;;;;;;;5.25;3.72;;;9.10;99.90;;;;;;5207520;28;20025;-73
2022/03/04 09:50:46;;;;;;;8.13;3.90;;;8.80;99.90;;;;;;5207450;28;20037;-73
2022/03/04 09:53:17;;;;;;;5.20;3.78;;;8.90;99.90;;;;;;5207448;28;20346;-73
2022/03/04 09:55:48;;;;;;;7.28;4.05;;;8.90;99.90;;;;;;5207474;28;20480;-73
2022/03/04 09:58:19;;;;;;;7.35;4.30;;;9.00;99.90;;;;;;5207255;28;20108;-73
2022/03/04 10:00:50;;;;;;;6.55;4.03;;;8.80;99.90;;;;;;5206996;28;20053;-74
2022/03/04 10:03:22;;;;;;;6.90;4.43;;;8.80;99.90;;;;;;5207198;28;20082;-74
2022/03/04 10:05:57;;;;;;;6.90;4.40;;;9.40;99.90;;;;;;5208175;28;20050;-74
2022/03/04 10:08:28;;;;;;;8.00;4.20;;;9.00;99.90;;;;;;5207238;28;20075;-74
2022/03/04 10:10:59;;;;;;;6.70;3.85;;;9.00;99.90;;;;;;5207206;28;20033;-74
2022/03/04 10:13:49;;;;;;;8.02;4.82;;;8.80;99.90;;;;;;5207066;28;20105;-72
2022/03/04 10:16:26;;;;;;;7.60;4.68;;;9.50;99.90;;;;;;5207021;28;20029;-74
2022/03/04 10:19:14;;;;;;;5.72;4.30;;;9.60;99.90;;;;;;5206926;28;20025;-72
2022/03/04 10:21:56;;;;;;;9.88;5.10;;;9.70;99.90;;;;;;5206702;28;20029;-74
2022/03/04 10:24:32;;;;;;;9.05;5.07;;;9.30;99.90;;;;;;5206920;28;20038;-72
2022/03/04 10:27:15;;;;;;;11.25;5.78;;;9.20;99.90;;;;;;5206584;28;20104;-73
2022/03/04 10:29:50;;;;;;;9.35;6.30;;;9.60;99.90;;;;;;5206867;28;20041;-74
2022/03/04 10:32:24;;;;;;;7.20;4.43;;;9.90;99.90;;;;;;5206822;28;20024;-72
2022/03/04 10:34:59;;;;;;;4.85;3.72;;;9.50;98.30;;;;;;5206793;28;20028;-72
2022/03/04 10:37:56;;;;;;;6.47;4.00;;;9.40;99.50;;;;;;5206716;28;20029;-74
2022/03/04 10:40:36;;;;;;;7.07;4.18;;;9.60;99.80;;;;;;5206563;28;20021;-73
2022/03/04 10:43:07;;;;;;;6.40;3.95;;;9.50;94.40;;;;;;5206605;28;20432;-72
2022/03/04 10:45:43;;;;;;;6.78;3.88;;;10.50;93.30;;;;;;5206583;28;20032;-74
2022/03/04 10:48:17;;;;;;;9.63;3.97;;;10.60;91.20;;;;;;5206743;28;20160;-72
2022/03/04 10:50:51;;;;;;;7.22;4.60;;;10.10;90.40;;;;;;5206475;28;20049;-72
2022/03/04 10:53:23;;;;;;;7.80;4.50;;;9.90;94.00;;;;;;5206571;28;20116;-73
2022/03/04 10:55:58;;;;;;;6.60;4.38;;;9.90;90.30;;;;;;5206477;28;20033;-73
2022/03/04 10:58:38;;;;;;;7.18;4.50;;;10.20;89.50;;;;;;5206545;28;20029;-73
2022/03/04 11:01:12;;;;;;;6.27;4.33;;;10.30;84.10;;;;;;5204964;28;20390;-72
2022/03/04 11:03:43;;;;;;;9.55;5.32;;;10.50;85.70;;;;;;5206396;28;20041;-74
2022/03/04 11:06:15;;;;;;;6.43;4.70;;;10.00;86.70;;;;;;5206384;28;20068;-72
2022/03/04 11:08:46;;;;;;;7.35;4.90;;;10.30;85.20;;;;;;5206459;28;20546;-72
2022/03/04 11:11:17;;;;;;;6.38;4.47;;;10.40;88.70;;;;;;5206326;28;20017;-72
2022/03/04 11:13:48;;;;;;;7.45;4.30;;;10.20;84.40;;;;;;5206358;28;20030;-73
2022/03/04 11:16:19;;;;;;;6.13;4.40;;;10.30;78.50;;;;;;5206291;28;20104;-73
2022/03/04 11:18:51;;;;;;;8.15;4.43;;;10.90;77.10;;;;;;5206352;28;20064;-74
2022/03/04 11:21:22;;;;;;;6.55;5.13;;;10.40;78.50;;;;;;5206170;28;20049;-73
2022/03/04 11:23:53;;;;;;;10.27;6.97;;;10.50;78.60;;;;;;5206235;28;20072;-74
2022/03/04 11:26:28;;;;;;;6.55;4.53;;;10.70;79.10;;;;;;5206292;28;20425;-73
2022/03/04 11:29:01;;;;;;;10.73;6.55;;;10.50;77.90;;;;;;5206163;28;20136;-74
2022/03/04 11:31:32;;;;;;;10.25;6.47;;;10.70;77.40;;;;;;5205895;28;20034;-73
2022/03/04 11:34:03;;;;;;;8.07;5.07;;;11.00;81.60;;;;;;5205859;28;20029;-73
2022/03/04 11:36:36;;;;;;;6.13;4.35;;;10.70;83.70;;;;;;5205915;28;20022;-73
2022/03/04 11:39:15;;;;;;;5.45;3.88;;;10.60;79.60;;;;;;5206517;28;20497;-74
2022/03/04 11:41:46;;;;;;;7.72;4.75;;;10.80;78.20;;;;;;5209811;28;20033;-74
2022/03/04 11:44:22;;;;;;;8.27;5.90;;;10.20;75.10;;;;;;5209917;28;20025;-72
2022/03/04 11:47:00;;;;;;;6.68;4.68;;;10.60;76.40;;;;;;5208656;28;20028;-73
2022/03/04 11:49:52;;;;;;;5.50;4.45;;;11.20;73.30;;;;;;5209762;28;20116;-73
2022/03/04 11:52:42;;;;;;;6.13;4.40;;;11.30;73.80;;;;;;5208555;28;20541;-72
2022/03/04 11:55:20;;;;;;;6.20;4.07;;;11.50;74.00;;;;;;5208538;28;20030;-74
2022/03/04 11:57:58;;;;;;;6.55;4.10;;;10.90;73.10;;;;;;5208345;28;20040;-73
2022/03/04 12:00:30;;;;;;;8.75;3.70;;;11.20;74.30;;;;;;5209399;28;20436;-74
2022/03/04 12:03:12;;;;;;;6.45;4.35;;;11.50;76.20;;;;;;5224684;28;20095;-73
2022/03/04 12:05:47;;;;;;;6.20;4.10;;;11.60;78.10;;;;;;5209639;28;20040;-72
2022/03/04 12:08:18;;;;;;;4.88;3.70;;;11.20;73.50;;;;;;5209485;28;20092;-73
2022/03/04 12:10:52;;;;;;;8.43;4.45;;;11.00;71.40;;;;;;5209498;28;20350;-74
2022/03/04 12:13:27;;;;;;;6.22;3.67;;;11.40;70.60;;;;;;5209347;28;20053;-73
2022/03/04 12:16:03;;;;;;;5.65;3.38;;;11.50;66.50;;;;;;5209345;28;20083;-75
2022/03/04 12:18:42;;;;;;;4.32;3.35;;;11.20;63.80;;;;;;5209302;28;20125;-75
2022/03/04 12:21:26;;;;;;;4.93;3.88;;;11.30;64.10;;;;;;5209060;28;20017;-73
2022/03/04 12:24:04;;;;;;;6.30;4.20;;;10.90;67.00;;;;;;5209210;28;20505;-74
2022/03/04 12:26:41;;;;;;;6.22;4.07;;;11.30;67.80;;;;;;5209165;28;20107;-73
2022/03/04 12:29:15;;;;;;;4.75;3.50;;;12.00;67.50;;;;;;5209047;28;20044;-72
2022/03/04 12:31:46;;;;;;;7.50;4.45;;;11.00;64.00;;;;;;5208946;28;20378;-73
2022/03/04 12:34:31;;;;;;;7.00;3.53;;;11.50;64.50;;;;;;5208951;28;20035;-72
2022/03/04 12:37:08;;;;;;;5.43;4.15;;;11.10;64.20;;;;;;5209014;28;20021;-72
2022/03/04 12:39:39;;;;;;;4.72;3.90;;;11.00;65.70;;;;;;5208935;28;20021;-72
2022/03/04 12:42:10;;;;;;;6.10;4.60;;;11.00;66.20;;;;;;5208761;28;20033;-74
2022/03/04 12:44:41;;;;;;;6.28;3.70;;;11.50;66.50;;;;;;5208804;28;20037;-73
2022/03/04 12:47:14;;;;;;;9.52;6.32;;;11.60;65.30;;;;;;5208828;28;20025;-74
2022/03/04 12:49:46;;;;;;;5.65;4.35;;;11.40;64.70;;;;;;5208585;28;20115;-72
2022/03/04 12:52:23;;;;;;;5.13;3.72;;;11.10;65.30;;;;;;5207332;28;20061;-72
2022/03/04 12:54:54;;;;;;;5.60;3.50;;;11.50;62.90;;;;;;5208574;28;20127;-73
2022/03/04 12:57:27;;;;;;;7.63;3.70;;;10.80;64.80;;;;;;5208568;28;20163;-73
2022/03/04 13:00:00;;;;;;;10.40;3.88;;;11.10;67.20;;;;;;5208172;28;20099;-73